Time;durP1;ratioP1;P1;durP2;ratioP2;P2;SDS_P1;SDS_P2;PMS_P1;PMS_P2;Temp;Humidity;BMP_temperature;BMP_pressure;BME280_temperature;BME280_humidity;BME280_pressure;Samples;Min_cycle;Max_cycle;Signal;HPM_P1;HPM_P2
2023/06/07 00:04:17;;;;;;;5.82;3.97;;;17.40;70.50;;;;;;10499520;28;20202;-90
2023/06/07 00:09:20;;;;;;;3.83;3.53;;;17.40;69.00;;;;;;10538140;28;20609;-90
2023/06/07 00:14:23;;;;;;;5.65;4.18;;;17.40;72.60;;;;;;10520327;28;20307;-89
2023/06/07 00:19:26;;;;;;;5.75;4.75;;;17.40;70.40;;;;;;10505513;28;20287;-90
2023/06/07 00:24:29;;;;;;;5.10;4.40;;;17.50;73.20;;;;;;10516103;28;20245;-90
2023/06/07 00:29:31;;;;;;;6.25;4.30;;;17.50;74.90;;;;;;10538396;28;20197;-89
2023/06/07 00:34:34;;;;;;;8.57;4.68;;;17.50;74.10;;;;;;10531119;28;20264;-92
2023/06/07 00:39:37;;;;;;;4.35;3.33;;;17.40;73.70;;;;;;10520749;28;20224;-90
2023/06/07 00:44:40;;;;;;;9.95;4.28;;;17.30;76.60;;;;;;10537009;28;20229;-90
2023/06/07 00:49:44;;;;;;;6.60;4.97;;;17.20;74.90;;;;;;10519385;28;20255;-90
2023/06/07 00:54:47;;;;;;;6.32;2.88;;;17.10;74.20;;;;;;10518235;28;20252;-90
2023/06/07 00:59:49;;;;;;;7.53;4.53;;;17.10;78.30;;;;;;10520084;28;20690;-90
2023/06/07 01:04:55;;;;;;;8.07;4.82;;;16.90;75.40;;;;;;10538803;28;20710;-92
2023/06/07 01:09:58;;;;;;;3.20;2.90;;;16.80;77.30;;;;;;10519775;28;20640;-91
2023/06/07 01:15:02;;;;;;;6.75;3.83;;;16.70;82.40;;;;;;10517652;28;20810;-91
2023/06/07 01:20:16;;;;;;;8.85;4.88;;;16.50;84.70;;;;;;10460446;28;20726;-89
2023/06/07 01:25:19;;;;;;;4.57;4.10;;;16.20;87.00;;;;;;10511825;28;20233;-90
2023/06/07 01:30:23;;;;;;;5.13;3.67;;;16.10;90.30;;;;;;10536296;28;20521;-91
2023/06/07 01:35:27;;;;;;;5.38;4.32;;;16.10;91.30;;;;;;10535568;28;20620;-91
2023/06/07 01:40:33;;;;;;;3.90;3.40;;;16.20;91.70;;;;;;10501043;28;20248;-90
2023/06/07 01:45:37;;;;;;;5.28;4.38;;;16.20;93.10;;;;;;10533934;28;20197;-90
2023/06/07 01:50:40;;;;;;;4.15;2.72;;;16.10;93.30;;;;;;10517306;28;20232;-90
2023/06/07 01:55:42;;;;;;;3.20;2.90;;;16.00;92.90;;;;;;10517126;28;20336;-91
2023/06/07 02:00:57;;;;;;;6.53;3.50;;;16.00;92.50;;;;;;10535754;28;20525;-90
2023/06/07 02:06:03;;;;;;;7.80;4.72;;;16.00;92.10;;;;;;10515619;28;20205;-91
2023/06/07 02:11:07;;;;;;;2.38;2.17;;;16.10;91.30;;;;;;10498972;28;20206;-90
2023/06/07 02:16:10;;;;;;;11.55;3.95;;;16.20;90.90;;;;;;10495612;28;20261;-90
2023/06/07 02:21:15;;;;;;;5.28;3.03;;;16.10;91.60;;;;;;10516208;28;20201;-90
2023/06/07 02:26:20;;;;;;;5.40;4.10;;;16.00;92.30;;;;;;10516969;28;20656;-91
2023/06/07 02:31:22;;;;;;;5.43;3.45;;;16.10;90.20;;;;;;10515150;28;20657;-91
2023/06/07 02:36:25;;;;;;;6.82;4.45;;;16.00;89.20;;;;;;10516508;28;20309;-90
2023/06/07 02:41:28;;;;;;;5.63;3.47;;;15.90;88.00;;;;;;10510476;28;20255;-91
2023/06/07 02:46:30;;;;;;;8.65;4.55;;;15.80;89.60;;;;;;10499999;28;20546;-90
2023/06/07 02:51:33;;;;;;;7.22;4.78;;;;;;;;;;10498542;28;20214;-89
2023/06/07 02:56:36;;;;;;;10.88;4.75;;;15.20;92.40;;;;;;10499623;28;20692;-90
2023/06/07 03:01:39;;;;;;;5.45;2.75;;;15.00;93.60;;;;;;10515213;28;20241;-89
2023/06/07 03:06:44;;;;;;;5.45;3.92;;;15.30;94.80;;;;;;10515710;28;20201;-90
2023/06/07 03:11:58;;;;;;;6.13;4.45;;;15.50;93.40;;;;;;10514199;28;20291;-89
2023/06/07 03:17:08;;;;;;;6.22;3.53;;;15.50;94.10;;;;;;10500792;28;20273;-90
2023/06/07 03:22:13;;;;;;;4.10;3.70;;;15.50;95.30;;;;;;10507909;28;20240;-90
2023/06/07 03:27:17;;;;;;;4.60;3.92;;;15.60;94.40;;;;;;10481014;28;20202;-89
2023/06/07 03:32:20;;;;;;;4.35;3.95;;;15.80;93.60;;;;;;10516995;28;20202;-90
2023/06/07 03:37:25;;;;;;;9.73;5.10;;;15.80;92.50;;;;;;10522415;28;20657;-91
2023/06/07 03:42:28;;;;;;;4.43;3.92;;;15.50;93.90;;;;;;10516885;28;20202;-91
2023/06/07 03:47:32;;;;;;;10.10;4.60;;;15.70;94.40;;;;;;10522121;28;20205;-91
2023/06/07 03:52:36;;;;;;;3.15;2.67;;;15.70;93.40;;;;;;10516197;28;20206;-90
2023/06/07 03:57:39;;;;;;;5.22;4.10;;;15.90;94.50;;;;;;10505175;28;20198;-90
2023/06/07 04:02:42;;;;;;;4.68;3.92;;;16.00;94.20;;;;;;10515017;28;20537;-89
2023/06/07 04:07:49;;;;;;;10.65;5.57;;;16.00;93.90;;;;;;10519631;28;20209;-90
2023/06/07 04:12:51;;;;;;;2.42;2.05;;;16.20;94.10;;;;;;10496056;28;20734;-90
2023/06/07 04:17:54;;;;;;;6.63;4.40;;;16.30;94.10;;;;;;10494468;28;20230;-90
2023/06/07 04:22:58;;;;;;;3.67;3.38;;;16.50;93.30;;;;;;10493628;28;20266;-90
2023/06/07 04:28:02;;;;;;;8.15;4.50;;;16.60;92.60;;;;;;10493350;28;20232;-90
2023/06/07 04:33:09;;;;;;;9.82;4.97;;;16.90;92.00;;;;;;10492088;28;20273;-90
2023/06/07 04:38:21;;;;;;;6.47;5.15;;;17.10;91.60;;;;;;10493995;28;20224;-89
2023/06/07 04:43:30;;;;;;;4.68;3.72;;;17.10;90.80;;;;;;10493425;28;20267;-90
2023/06/07 04:48:40;;;;;;;6.88;4.38;;;17.30;91.10;;;;;;10494781;28;20743;-89
2023/06/07 04:53:44;;;;;;;5.25;4.75;;;17.30;90.80;;;;;;10488492;28;20257;-90
2023/06/07 04:58:56;;;;;;;5.07;3.15;;;17.50;90.30;;;;;;10452486;28;20203;-90
2023/06/07 05:04:02;;;;;;;13.05;7.05;;;17.50;90.40;;;;;;10457090;28;20254;-89
2023/06/07 05:09:15;;;;;;;9.32;5.75;;;17.70;87.40;;;;;;10464352;28;20214;-91
2023/06/07 05:14:18;;;;;;;7.75;6.18;;;17.90;87.50;;;;;;10464108;28;20269;-89
2023/06/07 05:19:21;;;;;;;2.92;2.63;;;18.00;86.60;;;;;;10500379;28;20202;-91
2023/06/07 05:24:24;;;;;;;8.48;4.90;;;18.30;85.50;;;;;;10485472;28;20214;-88
2023/06/07 05:29:28;;;;;;;5.95;4.68;;;18.50;83.10;;;;;;10498218;28;20198;-89
2023/06/07 05:34:31;;;;;;;2.60;2.33;;;18.80;80.30;;;;;;10505806;28;21007;-89
2023/06/07 05:39:34;;;;;;;2.50;2.17;;;19.00;80.80;;;;;;10493920;28;20553;-89
2023/06/07 05:44:38;;;;;;;11.90;7.18;;;19.10;79.30;;;;;;10488060;28;20206;-89
2023/06/07 05:49:43;;;;;;;6.03;3.33;;;19.30;73.00;;;;;;10516779;28;20202;-89
2023/06/07 05:54:51;;;;;;;5.30;2.17;;;19.40;73.90;;;;;;10490908;28;20306;-88
2023/06/07 05:59:54;;;;;;;5.25;4.10;;;19.60;73.70;;;;;;10521451;28;20678;-89
2023/06/07 06:04:58;;;;;;;8.63;5.00;;;19.80;73.40;;;;;;10502549;28;20601;-90
2023/06/07 06:10:00;;;;;;;7.28;5.95;;;19.90;72.40;;;;;;10523418;28;20237;-88
2023/06/07 06:15:04;;;;;;;8.38;2.85;;;20.10;72.10;;;;;;10495497;28;20318;-90
2023/06/07 06:20:07;;;;;;;8.20;5.57;;;20.30;68.80;;;;;;10494520;28;20229;-91
2023/06/07 06:25:13;;;;;;;8.93;5.30;;;20.40;66.70;;;;;;10482220;28;20206;-91
2023/06/07 06:30:18;;;;;;;9.50;4.70;;;20.70;62.70;;;;;;10506015;28;20234;-89
2023/06/07 06:35:21;;;;;;;9.75;6.35;;;20.80;62.30;;;;;;10513777;28;20257;-90
2023/06/07 06:40:24;;;;;;;4.53;3.63;;;21.00;61.90;;;;;;10495372;28;20229;-89
2023/06/07 06:45:28;;;;;;;9.95;5.00;;;21.20;60.50;;;;;;10499711;28;20226;-88
2023/06/07 06:50:31;;;;;;;10.82;5.65;;;21.50;62.00;;;;;;10520062;28;20674;-88
2023/06/07 06:55:36;;;;;;;7.25;5.25;;;21.70;59.20;;;;;;10506767;28;20632;-87
2023/06/07 07:00:39;;;;;;;3.88;2.03;;;21.90;57.40;;;;;;10510105;28;20258;-88
2023/06/07 07:05:44;;;;;;;6.47;4.07;;;22.10;56.90;;;;;;10522442;28;20283;-88
2023/06/07 07:10:47;;;;;;;13.70;6.00;;;22.30;56.10;;;;;;10510169;28;20673;-89
2023/06/07 07:15:50;;;;;;;8.80;5.35;;;22.60;54.10;;;;;;10518697;28;20269;-91
2023/06/07 07:20:53;;;;;;;8.15;4.75;;;22.80;52.00;;;;;;10508715;28;20206;-87
2023/06/07 07:25:58;;;;;;;6.32;4.80;;;23.00;45.50;;;;;;10497989;28;20336;-89
2023/06/07 07:31:03;;;;;;;7.38;5.35;;;23.30;47.20;;;;;;10527559;28;20202;-88
2023/06/07 07:36:06;;;;;;;6.65;4.60;;;23.50;44.70;;;;;;10503585;28;20318;-89
2023/06/07 07:41:09;;;;;;;4.30;3.42;;;23.70;40.60;;;;;;10492903;28;20237;-89
2023/06/07 07:46:13;;;;;;;4.13;3.67;;;;;;;;;;10491689;28;20229;-88
2023/06/07 07:51:16;;;;;;;3.45;2.75;;;24.10;36.10;;;;;;10500927;28;20288;-88
2023/06/07 07:56:21;;;;;;;6.63;4.60;;;24.20;35.90;;;;;;10501507;28;20244;-88
2023/06/07 08:01:24;;;;;;;3.50;2.17;;;24.30;32.90;;;;;;10510038;28;20256;-88
2023/06/07 08:06:27;;;;;;;3.35;2.95;;;24.60;32.00;;;;;;10500014;28;20229;-88
2023/06/07 08:11:30;;;;;;;7.15;5.25;;;24.70;29.90;;;;;;10505455;28;20256;-89
2023/06/07 08:16:33;;;;;;;4.20;2.80;;;24.80;25.20;;;;;;10493523;28;20269;-89
2023/06/07 08:21:36;;;;;;;2.78;2.47;;;25.00;23.50;;;;;;10486123;28;20265;-88
2023/06/07 08:26:38;;;;;;;4.10;3.22;;;25.10;25.20;;;;;;10489143;28;20295;-88
2023/06/07 08:31:43;;;;;;;5.30;2.78;;;25.10;23.80;;;;;;10480568;28;20260;-89
2023/06/07 08:36:48;;;;;;;7.28;3.70;;;25.20;22.00;;;;;;10477497;28;20262;-88
2023/06/07 08:41:50;;;;;;;3.17;2.55;;;25.30;20.30;;;;;;10489575;28;20303;-90
2023/06/07 08:46:55;;;;;;;3.25;2.83;;;25.40;18.70;;;;;;10481435;28;20275;-91
2023/06/07 08:52:01;;;;;;;3.50;3.20;;;25.40;18.50;;;;;;10459454;28;20619;-90
2023/06/07 08:57:17;;;;;;;5.82;3.53;;;25.60;17.00;;;;;;10478742;28;20707;-88
2023/06/07 09:02:19;;;;;;;8.55;3.85;;;25.80;15.80;;;;;;10471321;28;20241;-89
2023/06/07 09:07:22;;;;;;;4.97;3.17;;;26.00;17.90;;;;;;10443905;28;20571;-88
2023/06/07 09:12:25;;;;;;;6.97;3.80;;;25.90;16.90;;;;;;10472690;28;20296;-88
2023/06/07 09:18:07;;;;;;;3.42;3.03;;;25.90;16.10;;;;;;10503496;28;20316;-88
2023/06/07 09:23:14;;;;;;;4.35;3.63;;;26.10;14.30;;;;;;10389180;28;20227;-88
2023/06/07 09:28:17;;;;;;;3.45;3.08;;;26.00;14.40;;;;;;10400143;28;20379;-88
2023/06/07 09:33:46;;;;;;;4.40;2.50;;;26.30;15.60;;;;;;10392546;28;20231;-88
2023/06/07 09:38:48;;;;;;;5.75;1.80;;;26.30;13.70;;;;;;10401894;28;20242;-88
2023/06/07 09:43:54;;;;;;;3.88;2.83;;;26.30;14.70;;;;;;10401223;28;20235;-88
2023/06/07 09:49:00;;;;;;;6.88;3.80;;;26.20;11.90;;;;;;10399210;28;20670;-87
2023/06/07 09:54:05;;;;;;;2.40;2.20;;;26.50;17.40;;;;;;10487846;28;20264;-88
2023/06/07 09:59:13;;;;;;;2.88;2.30;;;26.60;15.60;;;;;;10494045;28;20596;-88
2023/06/07 10:04:16;;;;;;;2.60;2.40;;;26.60;16.60;;;;;;10513027;28;20287;-88
2023/06/07 10:09:20;;;;;;;5.10;3.42;;;26.60;14.40;;;;;;10483057;28;20237;-88
2023/06/07 10:14:29;;;;;;;11.48;4.72;;;26.90;10.20;;;;;;10500705;28;20679;-88
2023/06/07 10:19:41;;;;;;;3.50;2.53;;;27.30;9.40;;;;;;10500620;28;20233;-88
2023/06/07 10:25:02;;;;;;;3.72;1.95;;;27.30;9.00;;;;;;10508679;28;20735;-87
2023/06/07 10:30:13;;;;;;;3.53;3.17;;;27.20;10.80;;;;;;10496616;28;20713;-88
2023/06/07 10:35:19;;;;;;;2.60;2.35;;;27.00;8.10;;;;;;10503075;28;20265;-87
2023/06/07 10:40:25;;;;;;;6.35;3.40;;;27.00;11.90;;;;;;10479334;28;20213;-89
2023/06/07 10:45:28;;;;;;;5.05;2.47;;;27.30;7.90;;;;;;10506412;28;20356;-88
2023/06/07 10:50:31;;;;;;;4.22;2.28;;;27.70;8.20;;;;;;10508419;28;20282;-89
2023/06/07 10:55:33;;;;;;;5.05;3.42;;;27.80;9.30;;;;;;10509942;28;20311;-88
2023/06/07 11:00:38;;;;;;;3.08;2.58;;;27.80;6.20;;;;;;10507186;28;20241;-88
2023/06/07 11:05:53;;;;;;;3.78;2.88;;;27.70;7.30;;;;;;10503472;28;20198;-88
2023/06/07 11:11:01;;;;;;;4.40;2.67;;;27.70;7.70;;;;;;10515563;28;20236;-89
2023/06/07 11:16:23;;;;;;;4.28;3.25;;;27.90;6.60;;;;;;10531725;28;21008;-92
2023/06/07 11:21:27;;;;;;;6.70;3.50;;;27.60;5.10;;;;;;10510449;28;20550;-88
2023/06/07 11:26:35;;;;;;;3.80;2.67;;;27.80;6.00;;;;;;10499915;28;20198;-87
2023/06/07 11:31:38;;;;;;;9.45;3.10;;;27.80;6.10;;;;;;10505528;28;20343;-86
2023/06/07 11:36:43;;;;;;;7.63;3.97;;;27.80;4.00;;;;;;10486538;28;20700;-89
2023/06/07 11:41:46;;;;;;;4.65;2.65;;;27.80;4.00;;;;;;10506676;28;20566;-87
2023/06/07 11:46:50;;;;;;;4.65;3.75;;;27.70;4.80;;;;;;10494203;28;20210;-89
2023/06/07 11:51:56;;;;;;;4.38;2.67;;;27.70;3.60;;;;;;10506585;28;20233;-87
2023/06/07 11:57:00;;;;;;;3.63;2.47;;;27.70;5.90;;;;;;10507930;28;20597;-88
2023/06/07 12:02:14;;;;;;;2.35;2.15;;;;;;;;;;10506726;23;20362;-88
2023/06/07 12:07:29;;;;;;;18.92;3.38;;;27.70;6.60;;;;;;10397022;28;20235;-89
2023/06/07 12:12:31;;;;;;;4.22;3.83;;;27.30;8.80;;;;;;10413580;28;20255;-88
2023/06/07 12:17:35;;;;;;;10.75;4.03;;;27.20;7.30;;;;;;10411244;28;20686;-88
2023/06/07 12:22:39;;;;;;;6.60;3.15;;;27.00;11.50;;;;;;10406300;28;20636;-88
2023/06/07 12:27:48;;;;;;;7.25;2.28;;;26.70;11.10;;;;;;10413108;28;20199;-88
2023/06/07 12:32:57;;;;;;;7.63;3.13;;;26.70;14.30;;;;;;10404347;28;20226;-88
2023/06/07 12:38:00;;;;;;;3.53;2.67;;;26.50;16.30;;;;;;10434811;28;20281;-89
2023/06/07 12:43:03;;;;;;;4.07;2.88;;;26.10;13.50;;;;;;10389083;28;20240;-88
2023/06/07 12:48:06;;;;;;;3.28;2.72;;;26.10;12.40;;;;;;10395214;28;20232;-90
2023/06/07 12:53:09;;;;;;;7.13;3.45;;;25.90;5.80;;;;;;10402765;28;20298;-91
2023/06/07 12:58:12;;;;;;;3.55;2.55;;;26.10;15.50;;;;;;10394219;28;20274;-90
2023/06/07 13:03:17;;;;;;;4.65;2.78;;;26.10;11.40;;;;;;10420943;28;20285;-90
2023/06/07 13:08:20;;;;;;;3.45;3.05;;;26.20;10.70;;;;;;10448087;28;20663;-90
2023/06/07 13:13:22;;;;;;;4.82;3.20;;;26.30;9.70;;;;;;10485087;28;20226;-90
2023/06/07 13:18:25;;;;;;;5.25;2.90;;;26.30;14.60;;;;;;10487877;28;20254;-90
2023/06/07 13:23:28;;;;;;;10.55;3.30;;;26.20;13.20;;;;;;10485862;28;20234;-90
2023/06/07 13:28:31;;;;;;;4.57;3.08;;;26.40;7.40;;;;;;10474270;28;20221;-90
2023/06/07 13:33:34;;;;;;;3.80;3.38;;;26.70;8.80;;;;;;10476511;28;20210;-88
2023/06/07 13:38:37;;;;;;;5.40;2.90;;;27.30;2.50;;;;;;10485494;28;20270;-89
2023/06/07 13:43:40;;;;;;;6.40;3.38;;;27.40;4.60;;;;;;10478652;28;20235;-89
2023/06/07 13:48:46;;;;;;;6.25;2.65;;;27.40;7.60;;;;;;10464348;28;20241;-88
2023/06/07 13:53:48;;;;;;;3.35;2.92;;;27.40;6.50;;;;;;10476319;28;20740;-88
2023/06/07 13:58:51;;;;;;;4.38;2.92;;;27.60;5.30;;;;;;10468859;28;20885;-89
2023/06/07 14:03:55;;;;;;;10.77;3.20;;;27.90;2.70;;;;;;10487138;28;20583;-88
2023/06/07 14:08:58;;;;;;;3.78;3.17;;;28.00;6.20;;;;;;10468834;28;20285;-88
2023/06/07 14:14:01;;;;;;;4.00;2.75;;;28.00;5.80;;;;;;10470988;28;20229;-88
2023/06/07 14:19:03;;;;;;;4.50;2.92;;;27.80;5.40;;;;;;10463313;28;20254;-90
2023/06/07 14:24:06;;;;;;;6.03;2.90;;;27.40;4.20;;;;;;10472165;28;20218;-88
2023/06/07 14:29:09;;;;;;;7.10;2.95;;;27.30;3.90;;;;;;10472141;28;20229;-88
2023/06/07 14:34:12;;;;;;;2.72;2.47;;;27.40;5.40;;;;;;10459318;28;20230;-88
2023/06/07 14:39:14;;;;;;;9.35;3.65;;;27.50;6.20;;;;;;10457268;28;20319;-88
2023/06/07 14:44:18;;;;;;;5.50;3.45;;;27.50;3.10;;;;;;10439026;28;20241;-88
2023/06/07 14:49:21;;;;;;;5.38;3.42;;;27.70;5.50;;;;;;10485978;28;20665;-88
2023/06/07 14:54:24;;;;;;;6.65;4.07;;;27.60;8.40;;;;;;10467178;28;20288;-89
2023/06/07 14:59:26;;;;;;;4.95;3.60;;;27.20;5.00;;;;;;10470957;28;20274;-87
2023/06/07 15:04:29;;;;;;;7.22;3.65;;;26.90;4.70;;;;;;10484918;28;20356;-86
2023/06/07 15:09:32;;;;;;;3.85;3.30;;;26.60;5.20;;;;;;10467961;28;20229;-86
2023/06/07 15:14:35;;;;;;;5.65;2.92;;;26.60;4.90;;;;;;10489924;28;20210;-87
2023/06/07 15:19:38;;;;;;;4.82;2.83;;;26.70;5.70;;;;;;10493371;28;20265;-86
2023/06/07 15:24:43;;;;;;;8.13;3.88;;;26.80;9.10;;;;;;10480793;28;20234;-93
2023/06/07 15:29:46;;;;;;;4.75;3.53;;;27.00;3.10;;;;;;10477196;28;20247;-89
2023/06/07 15:34:48;;;;;;;4.47;3.10;;;27.10;8.30;;;;;;10492283;28;20744;-89
2023/06/07 15:39:51;;;;;;;3.38;3.08;;;27.10;10.30;;;;;;10489007;28;20292;-88
2023/06/07 15:44:54;;;;;;;3.35;3.05;;;26.90;12.30;;;;;;10488395;28;20234;-89
2023/06/07 15:49:57;;;;;;;6.90;3.38;;;26.70;8.80;;;;;;10468165;28;20595;-88
2023/06/07 15:54:59;;;;;;;3.75;3.17;;;26.50;7.00;;;;;;10491705;28;20283;-89
2023/06/07 16:00:12;;;;;;;6.18;3.65;;;26.30;10.00;;;;;;10481063;28;20265;-94
2023/06/07 16:05:34;;;;;;;6.63;3.90;;;26.20;7.20;;;;;;10428934;23;20298;-84
2023/06/07 16:10:37;;;;;;;6.25;3.75;;;26.30;6.00;;;;;;10386944;28;20289;-84
2023/06/07 16:15:39;;;;;;;5.32;3.60;;;26.30;6.60;;;;;;10371939;28;20256;-83
2023/06/07 16:20:42;;;;;;;7.68;4.07;;;26.20;7.00;;;;;;10387221;28;20228;-82
2023/06/07 16:25:45;;;;;;;5.05;4.07;;;26.00;7.50;;;;;;10371231;28;20626;-83
2023/06/07 16:30:47;;;;;;;11.65;4.32;;;25.90;8.00;;;;;;10353490;28;20262;-83
2023/06/07 16:35:50;;;;;;;6.38;4.15;;;26.00;7.10;;;;;;10371695;28;20244;-83
2023/06/07 16:40:52;;;;;;;8.20;4.20;;;25.90;8.40;;;;;;10353515;28;20290;-83
2023/06/07 16:45:55;;;;;;;6.25;3.67;;;25.80;8.60;;;;;;10370700;28;20827;-83
2023/06/07 16:50:58;;;;;;;5.13;4.13;;;25.80;9.30;;;;;;10370632;28;20236;-84
2023/06/07 16:56:00;;;;;;;8.40;4.15;;;25.90;10.60;;;;;;10385233;28;20255;-84
2023/06/07 17:01:03;;;;;;;6.95;4.28;;;26.00;10.40;;;;;;10370244;28;20251;-84
2023/06/07 17:06:06;;;;;;;5.10;4.15;;;26.00;10.70;;;;;;10370853;28;21008;-84
2023/06/07 17:11:08;;;;;;;6.60;4.40;;;25.90;10.40;;;;;;10370257;28;20275;-84
2023/06/07 17:16:11;;;;;;;5.32;3.60;;;26.00;10.00;;;;;;10336698;28;20310;-85
2023/06/07 17:21:15;;;;;;;5.82;3.47;;;25.90;9.40;;;;;;10370768;28;20936;-84
2023/06/07 17:26:18;;;;;;;5.47;4.05;;;25.60;9.10;;;;;;10369330;28;20239;-84
2023/06/07 17:31:20;;;;;;;4.97;3.63;;;25.50;10.40;;;;;;10368354;28;20749;-83
2023/06/07 17:36:23;;;;;;;9.98;3.97;;;25.40;10.10;;;;;;10368995;28;20252;-83
2023/06/07 17:41:26;;;;;;;5.07;4.57;;;25.30;12.00;;;;;;10367385;28;20244;-84
2023/06/07 17:46:28;;;;;;;9.32;5.05;;;25.30;12.40;;;;;;10369190;28;20289;-84
2023/06/07 17:51:31;;;;;;;9.38;4.40;;;25.30;12.30;;;;;;10368699;28;20293;-83
2023/06/07 17:56:35;;;;;;;11.10;4.78;;;25.10;11.80;;;;;;10368262;28;20239;-84
2023/06/07 18:01:39;;;;;;;8.85;5.28;;;24.90;14.40;;;;;;10350626;28;20228;-83
2023/06/07 18:06:41;;;;;;;7.72;4.82;;;24.70;14.50;;;;;;10350611;28;20647;-83
2023/06/07 18:11:44;;;;;;;17.33;4.70;;;24.40;14.60;;;;;;10350149;28;20235;-84
2023/06/07 18:16:47;;;;;;;7.28;4.35;;;24.00;13.60;;;;;;10356776;28;20313;-83
2023/06/07 18:21:51;;;;;;;8.63;4.57;;;23.50;13.80;;;;;;10386068;28;20282;-84
2023/06/07 18:26:59;;;;;;;12.00;4.85;;;23.30;14.50;;;;;;10353538;28;20699;-84
2023/06/07 18:32:02;;;;;;;8.50;4.72;;;22.90;14.50;;;;;;10388983;28;20679;-83
2023/06/07 18:37:05;;;;;;;4.50;4.07;;;;;;;;;;10352010;28;20317;-83
2023/06/07 18:42:07;;;;;;;7.28;4.60;;;22.50;14.70;;;;;;10398783;28;20250;-83
2023/06/07 18:47:10;;;;;;;5.32;4.85;;;22.20;15.30;;;;;;10395738;28;20224;-85
2023/06/07 18:52:13;;;;;;;7.07;5.15;;;22.00;17.60;;;;;;10408907;28;20199;-87
2023/06/07 18:57:16;;;;;;;7.00;5.03;;;21.80;17.00;;;;;;10379823;28;20664;-86
2023/06/07 19:02:18;;;;;;;8.57;5.53;;;21.60;16.50;;;;;;10378439;28;20290;-85
2023/06/07 19:07:22;;;;;;;17.55;6.75;;;21.30;17.60;;;;;;10356722;28;20314;-87
2023/06/07 19:12:25;;;;;;;19.13;5.72;;;21.20;24.80;;;;;;10372364;28;20710;-83
2023/06/07 19:17:30;;;;;;;15.80;5.72;;;20.80;29.40;;;;;;10399374;28;20273;-83
2023/06/07 19:22:33;;;;;;;18.88;6.95;;;20.30;28.60;;;;;;10391518;28;20548;-84
2023/06/07 19:27:35;;;;;;;17.50;7.20;;;19.60;33.00;;;;;;10377628;28;20291;-84
2023/06/07 19:32:39;;;;;;;18.10;7.15;;;19.20;35.20;;;;;;10366136;28;20248;-87
2023/06/07 19:37:42;;;;;;;18.27;7.35;;;18.80;38.30;;;;;;10368907;28;20723;-85
2023/06/07 19:42:45;;;;;;;20.17;7.55;;;18.40;39.80;;;;;;10385205;28;20737;-84
2023/06/07 19:47:47;;;;;;;11.60;6.30;;;18.20;40.50;;;;;;10361977;28;20228;-85
2023/06/07 19:52:50;;;;;;;10.60;6.65;;;18.10;42.90;;;;;;10381276;28;20943;-84
2023/06/07 19:57:53;;;;;;;14.43;7.28;;;17.80;50.20;;;;;;10395330;28;20254;-84
2023/06/07 20:02:56;;;;;;;19.77;7.60;;;17.50;60.20;;;;;;10339083;28;20205;-86
2023/06/07 20:07:59;;;;;;;12.00;7.47;;;17.30;60.20;;;;;;10369211;28;20264;-85
2023/06/07 20:13:01;;;;;;;14.25;6.85;;;17.10;62.80;;;;;;10356203;28;20212;-85
2023/06/07 20:18:05;;;;;;;16.23;7.95;;;16.90;72.70;;;;;;10371274;28;20251;-85
2023/06/07 20:23:07;;;;;;;19.63;8.23;;;16.70;76.70;;;;;;10372273;28;20930;-85
2023/06/07 20:28:10;;;;;;;13.40;7.57;;;16.50;79.30;;;;;;10370698;28;20698;-86
2023/06/07 20:33:12;;;;;;;17.15;7.75;;;16.10;85.50;;;;;;10406830;28;20740;-85
2023/06/07 20:38:17;;;;;;;21.70;7.93;;;16.00;85.90;;;;;;10378559;28;20321;-84
2023/06/07 20:43:19;;;;;;;15.63;8.25;;;15.70;93.10;;;;;;10397003;28;20558;-84
2023/06/07 20:48:22;;;;;;;16.77;8.23;;;15.50;95.00;;;;;;10382469;28;20208;-84
2023/06/07 20:53:33;;;;;;;19.92;8.95;;;15.50;95.60;;;;;;10335042;28;20213;-84
2023/06/07 20:58:40;;;;;;;11.20;8.13;;;15.30;95.30;;;;;;10336358;28;20262;-83
2023/06/07 21:03:43;;;;;;;13.80;8.00;;;15.20;96.30;;;;;;10369505;28;20659;-83
2023/06/07 21:08:45;;;;;;;21.48;9.05;;;15.00;97.70;;;;;;10360970;28;20229;-83
2023/06/07 21:13:48;;;;;;;18.70;9.20;;;14.90;98.70;;;;;;10330389;28;20641;-83
2023/06/07 21:18:51;;;;;;;23.08;10.25;;;14.70;99.90;;;;;;10327528;28;20637;-83
2023/06/07 21:23:53;;;;;;;22.10;9.55;;;14.60;99.90;;;;;;10311382;28;20232;-83
2023/06/07 21:28:56;;;;;;;25.80;9.40;;;14.40;99.90;;;;;;10305334;28;20224;-83
2023/06/07 21:34:02;;;;;;;30.77;10.35;;;14.30;99.90;;;;;;10307188;28;20688;-83
2023/06/07 21:39:04;;;;;;;24.60;10.65;;;14.30;99.90;;;;;;10324222;28;20256;-82
2023/06/07 21:44:07;;;;;;;20.90;9.45;;;14.20;99.90;;;;;;10320380;28;20687;-82
2023/06/07 21:49:09;;;;;;;20.35;10.57;;;14.10;99.90;;;;;;10303984;28;20245;-83
2023/06/07 21:54:13;;;;;;;34.05;10.30;;;14.00;99.90;;;;;;10326838;28;20295;-83
2023/06/07 21:59:15;;;;;;;16.40;10.13;;;13.80;99.90;;;;;;10326571;28;20322;-84
2023/06/07 22:04:18;;;;;;;6.90;4.50;;;13.70;99.90;;;;;;10319908;28;20267;-86
2023/06/07 22:09:21;;;;;;;22.80;11.68;;;13.70;99.90;;;;;;10367530;28;20244;-84
2023/06/07 22:14:24;;;;;;;5.80;4.95;;;13.70;99.90;;;;;;10335038;28;20729;-87
2023/06/07 22:19:26;;;;;;;8.52;5.63;;;13.60;99.90;;;;;;10406245;28;20648;-86
2023/06/07 22:24:29;;;;;;;11.88;8.57;;;14.20;99.90;;;;;;10408499;28;20685;-83
2023/06/07 22:29:32;;;;;;;16.17;10.18;;;14.50;99.90;;;;;;10385027;28;20742;-84
2023/06/07 22:34:35;;;;;;;16.15;8.23;;;14.50;99.90;;;;;;10365827;28;20290;-84
2023/06/07 22:39:38;;;;;;;14.02;8.32;;;14.70;99.90;;;;;;10401899;28;20289;-84
2023/06/07 22:44:41;;;;;;;21.02;7.72;;;14.80;99.90;;;;;;10374065;28;20232;-84
2023/06/07 22:49:44;;;;;;;15.07;9.48;;;14.90;99.90;;;;;;10366578;28;20232;-86
2023/06/07 22:54:47;;;;;;;10.95;7.13;;;14.90;99.90;;;;;;10388011;28;20710;-85
2023/06/07 22:59:49;;;;;;;9.77;6.78;;;15.20;99.90;;;;;;10344928;28;20249;-84
2023/06/07 23:04:52;;;;;;;13.75;9.52;;;15.20;99.90;;;;;;10307529;28;20272;-84
2023/06/07 23:09:56;;;;;;;11.18;9.35;;;15.30;99.90;;;;;;10391200;28;20235;-84
2023/06/07 23:15:00;;;;;;;15.25;8.52;;;15.30;99.90;;;;;;10348542;28;20286;-84
2023/06/07 23:20:09;;;;;;;10.85;9.23;;;15.40;99.90;;;;;;10401974;28;20251;-84
2023/06/07 23:25:12;;;;;;;15.18;9.88;;;15.40;99.90;;;;;;10401606;28;20294;-84
2023/06/07 23:30:15;;;;;;;6.85;6.18;;;15.30;99.90;;;;;;10383347;28;20646;-84
2023/06/07 23:35:19;;;;;;;9.73;8.18;;;15.30;99.90;;;;;;10406736;28;20238;-84
2023/06/07 23:40:22;;;;;;;7.70;6.95;;;15.50;99.90;;;;;;10406555;28;20255;-84
2023/06/07 23:45:28;;;;;;;8.88;7.32;;;15.60;99.90;;;;;;10406748;28;20235;-84
2023/06/07 23:50:32;;;;;;;11.68;9.18;;;15.90;99.90;;;;;;10395604;28;20243;-84
2023/06/07 23:55:34;;;;;;;10.68;7.97;;;15.90;99.90;;;;;;10412398;28;20269;-84
